createdAt,value
2018-07-26T00:00:29.029Z,941.95
2018-07-26T00:01:29.020Z,941.94
2018-07-26T00:02:29.008Z,941.90
2018-07-26T00:03:28.996Z,941.84
2018-07-26T00:04:28.993Z,941.85
2018-07-26T00:05:28.975Z,941.84
2018-07-26T00:06:28.968Z,941.83
2018-07-26T00:07:28.957Z,941.85
2018-07-26T00:08:28.942Z,941.81
2018-07-26T00:09:28.936Z,941.81
2018-07-26T00:10:28.923Z,941.82
2018-07-26T00:11:28.922Z,941.80
2018-07-26T00:12:28.904Z,941.80
2018-07-26T00:13:28.896Z,941.82
2018-07-26T00:14:28.889Z,941.85
2018-07-26T00:15:28.870Z,941.84
2018-07-26T00:16:28.864Z,941.86
2018-07-26T00:17:28.849Z,941.84
2018-07-26T00:18:28.839Z,941.88
2018-07-26T00:19:28.833Z,941.89
2018-07-26T00:20:28.818Z,941.95
2018-07-26T00:21:28.809Z,941.95
2018-07-26T00:22:28.801Z,941.99
2018-07-26T00:23:28.792Z,941.99
2018-07-26T00:24:28.782Z,942.04
2018-07-26T00:25:28.768Z,942.06
2018-07-26T00:26:28.757Z,942.05
2018-07-26T00:27:28.762Z,942.05
2018-07-26T00:28:28.744Z,942.02
2018-07-26T00:29:28.725Z,942.04
2018-07-26T00:30:28.714Z,942.07
2018-07-26T00:31:28.714Z,942.06
2018-07-26T00:32:28.700Z,942.08
2018-07-26T00:33:28.692Z,942.04
2018-07-26T00:34:28.673Z,942.05
2018-07-26T00:35:28.669Z,942.04
2018-07-26T00:36:28.654Z,942.01
2018-07-26T00:37:28.640Z,942.02
2018-07-26T00:38:28.631Z,942.05
2018-07-26T00:39:28.622Z,942.08
2018-07-26T00:40:28.609Z,942.12
2018-07-26T00:41:28.604Z,942.14
2018-07-26T00:42:28.590Z,942.16
2018-07-26T00:43:28.580Z,942.19
2018-07-26T00:44:28.570Z,942.20
2018-07-26T00:45:28.562Z,942.18
2018-07-26T00:46:28.553Z,942.13
2018-07-26T00:47:28.745Z,942.12
2018-07-26T00:48:28.530Z,942.02
2018-07-26T00:49:28.518Z,942.01
2018-07-26T00:50:28.515Z,942.01
2018-07-26T00:51:28.504Z,942.04
2018-07-26T00:52:28.494Z,942.02
2018-07-26T00:53:28.478Z,942.02
2018-07-26T00:54:28.481Z,942.00
2018-07-26T00:55:28.457Z,942.02
2018-07-26T00:56:28.449Z,942.03
2018-07-26T00:57:28.443Z,942.01
2018-07-26T00:58:28.429Z,942.03
2018-07-26T00:59:28.419Z,942.03
2018-07-26T01:00:28.410Z,942.02
2018-07-26T01:01:28.394Z,942.01
2018-07-26T01:02:28.384Z,941.97
2018-07-26T01:03:28.377Z,942.00
2018-07-26T01:04:28.363Z,942.03
2018-07-26T01:05:28.360Z,942.00
2018-07-26T01:06:28.350Z,942.00
2018-07-26T01:07:28.333Z,942.02
2018-07-26T01:08:28.322Z,942.04
2018-07-26T01:09:28.353Z,942.12
2018-07-26T01:10:28.303Z,942.09
2018-07-26T01:11:28.491Z,942.10
2018-07-26T01:12:28.278Z,942.12
2018-07-26T01:13:28.277Z,942.11
2018-07-26T01:14:28.259Z,942.10
2018-07-26T01:15:28.252Z,942.06
2018-07-26T01:16:28.238Z,942.04
2018-07-26T01:17:28.232Z,941.98
2018-07-26T01:18:28.226Z,942.02
2018-07-26T01:19:28.207Z,941.98
2018-07-26T01:20:28.197Z,941.99
2018-07-26T01:21:28.185Z,941.99
2018-07-26T01:22:28.174Z,942.01
2018-07-26T01:23:28.164Z,942.01
2018-07-26T01:24:28.154Z,942.03
2018-07-26T01:25:28.149Z,941.99
2018-07-26T01:26:28.135Z,941.93
2018-07-26T01:27:28.124Z,941.93
2018-07-26T01:28:28.113Z,941.91
2018-07-26T01:29:28.105Z,941.90
2018-07-26T01:30:28.094Z,941.91
2018-07-26T01:31:28.080Z,941.88
2018-07-26T01:32:28.078Z,941.86
2018-07-26T01:33:28.068Z,941.83
2018-07-26T01:34:28.053Z,941.81
2018-07-26T01:35:28.039Z,941.82
2018-07-26T01:36:28.033Z,941.83
2018-07-26T01:37:28.020Z,941.85
2018-07-26T01:38:28.010Z,941.93
2018-07-26T01:39:27.996Z,941.97
2018-07-26T01:40:27.989Z,942.03
2018-07-26T01:41:28.177Z,942.03
2018-07-26T01:42:27.964Z,942.06
2018-07-26T01:43:27.960Z,942.08
2018-07-26T01:44:27.945Z,942.07
2018-07-26T01:45:27.938Z,942.01
2018-07-26T01:46:27.920Z,942.01
2018-07-26T01:48:27.903Z,942.00
2018-07-26T01:49:27.894Z,941.97
2018-07-26T01:50:27.880Z,941.91
2018-07-26T01:51:27.879Z,941.90
2018-07-26T01:52:27.859Z,941.90
2018-07-26T01:53:27.857Z,941.90
2018-07-26T01:54:27.846Z,941.89
2018-07-26T01:55:27.833Z,941.91
2018-07-26T01:56:27.815Z,941.89
2018-07-26T01:57:27.812Z,941.90
2018-07-26T01:58:27.800Z,941.86
2018-07-26T01:59:27.793Z,941.84
2018-07-26T02:00:27.781Z,941.91
2018-07-26T02:01:27.771Z,941.92
2018-07-26T02:02:27.764Z,941.93
2018-07-26T02:03:27.748Z,941.95
2018-07-26T02:04:27.736Z,941.88
2018-07-26T02:05:27.727Z,941.86
2018-07-26T02:06:27.718Z,941.87
2018-07-26T02:07:27.709Z,941.86
2018-07-26T02:08:27.695Z,941.87
2018-07-26T02:09:27.685Z,941.89
2018-07-26T02:10:27.666Z,941.91
2018-07-26T02:11:27.663Z,941.92
2018-07-26T02:12:27.648Z,941.91
2018-07-26T02:13:27.636Z,941.90
2018-07-26T02:14:27.627Z,941.88
2018-07-26T02:15:27.654Z,941.82
2018-07-26T02:16:27.611Z,941.83
2018-07-26T02:17:27.592Z,941.80
2018-07-26T02:18:27.782Z,941.78
2018-07-26T02:19:27.576Z,941.84
2018-07-26T02:20:27.565Z,941.82
2018-07-26T02:21:27.559Z,941.84
2018-07-26T02:22:27.540Z,941.85
2018-07-26T02:23:27.535Z,941.83
2018-07-26T02:24:27.525Z,941.85
2018-07-26T02:25:27.510Z,941.86
2018-07-26T02:26:27.496Z,941.83
2018-07-26T02:27:27.494Z,941.79
2018-07-26T02:28:27.477Z,941.81
2018-07-26T02:29:27.464Z,941.77
2018-07-26T02:30:27.452Z,941.80
2018-07-26T02:31:27.444Z,941.78
2018-07-26T02:32:27.436Z,941.76
2018-07-26T02:33:27.437Z,941.79
2018-07-26T02:34:27.414Z,941.74
2018-07-26T02:35:27.409Z,941.73
2018-07-26T02:36:27.388Z,941.72
2018-07-26T02:37:27.384Z,941.68
2018-07-26T02:38:27.371Z,941.67
2018-07-26T02:39:27.358Z,941.68
2018-07-26T02:40:27.356Z,941.65
2018-07-26T02:41:27.347Z,941.70
2018-07-26T02:42:27.327Z,941.68
2018-07-26T02:43:27.324Z,941.68
2018-07-26T02:44:27.306Z,941.64
2018-07-26T02:45:27.298Z,941.67
2018-07-26T02:46:27.292Z,941.60
2018-07-26T02:47:27.277Z,941.64
2018-07-26T02:48:27.263Z,941.66
2018-07-26T02:49:27.261Z,941.65
2018-07-26T02:50:27.244Z,941.65
2018-07-26T02:51:27.248Z,941.63
2018-07-26T02:52:27.222Z,941.64
2018-07-26T02:53:27.214Z,941.64
2018-07-26T02:54:27.204Z,941.61
2018-07-26T02:55:27.191Z,941.64
2018-07-26T02:56:27.181Z,941.64
2018-07-26T02:57:27.177Z,941.69
2018-07-26T02:58:27.160Z,941.67
2018-07-26T02:59:27.152Z,941.68
2018-07-26T03:00:27.348Z,941.68
2018-07-26T03:01:27.139Z,941.70
2018-07-26T03:02:27.128Z,941.72
2018-07-26T03:03:27.109Z,941.74
2018-07-26T03:04:27.106Z,941.75
2018-07-26T03:05:27.096Z,941.76
2018-07-26T03:06:27.090Z,941.77
2018-07-26T03:07:27.071Z,941.82
2018-07-26T03:08:27.063Z,941.80
2018-07-26T03:09:27.050Z,941.77
2018-07-26T03:10:27.081Z,941.78
2018-07-26T03:11:27.032Z,941.75
2018-07-26T03:12:27.023Z,941.75
2018-07-26T03:13:27.005Z,941.75
2018-07-26T03:14:26.997Z,941.70
2018-07-26T03:15:26.989Z,941.67
2018-07-26T03:16:26.979Z,941.66
2018-07-26T03:17:26.972Z,941.66
2018-07-26T03:18:26.955Z,941.65
2018-07-26T03:19:26.943Z,941.67
2018-07-26T03:20:26.947Z,941.67
2018-07-26T03:21:26.923Z,941.67
2018-07-26T03:22:26.915Z,941.67
2018-07-26T03:23:26.902Z,941.67
2018-07-26T03:24:26.896Z,941.66
2018-07-26T03:25:26.883Z,941.67
2018-07-26T03:26:26.880Z,941.64
2018-07-26T03:27:26.871Z,941.66
2018-07-26T03:28:26.860Z,941.64
2018-07-26T03:29:26.845Z,941.64
2018-07-26T03:30:27.040Z,941.65
2018-07-26T03:31:26.827Z,941.63
2018-07-26T03:32:26.811Z,941.62
2018-07-26T03:33:26.807Z,941.59
2018-07-26T03:34:26.795Z,941.54
2018-07-26T03:35:26.788Z,941.59
2018-07-26T03:36:26.779Z,941.53
2018-07-26T03:37:26.768Z,941.57
2018-07-26T03:38:26.752Z,941.52
2018-07-26T03:39:26.752Z,941.53
2018-07-26T03:40:26.739Z,941.53
2018-07-26T03:41:26.722Z,941.51
2018-07-26T03:42:26.909Z,941.50
2018-07-26T03:43:26.728Z,941.49
2018-07-26T03:44:26.695Z,941.43
2018-07-26T03:45:26.685Z,941.41
2018-07-26T03:46:26.675Z,941.39
2018-07-26T03:47:26.659Z,941.41
2018-07-26T03:48:26.847Z,941.41
2018-07-26T03:49:26.639Z,941.40
2018-07-26T03:50:26.627Z,941.37
2018-07-26T03:51:26.854Z,941.34
2018-07-26T03:52:26.608Z,941.33
2018-07-26T03:53:26.600Z,941.31
2018-07-26T03:54:26.593Z,941.31
2018-07-26T03:55:26.584Z,941.33
2018-07-26T03:56:26.569Z,941.28
2018-07-26T03:57:26.559Z,941.25
2018-07-26T03:58:26.544Z,941.22
2018-07-26T03:59:26.541Z,941.18
2018-07-26T04:00:26.730Z,941.19
2018-07-26T04:01:26.518Z,941.11
2018-07-26T04:02:26.509Z,941.12
2018-07-26T04:03:26.571Z,941.13
2018-07-26T04:04:26.485Z,941.08
2018-07-26T04:05:26.502Z,941.08
2018-07-26T04:06:26.466Z,941.08
2018-07-26T04:07:26.457Z,941.07
2018-07-26T04:08:26.446Z,941.08
2018-07-26T04:09:26.431Z,941.04
2018-07-26T04:10:26.423Z,941.03
2018-07-26T04:11:26.411Z,941.02
2018-07-26T04:12:26.401Z,941.02
2018-07-26T04:13:26.397Z,941.04
2018-07-26T04:14:26.390Z,941.07
2018-07-26T04:15:26.375Z,941.05
2018-07-26T04:16:26.367Z,941.07
2018-07-26T04:17:26.350Z,941.05
2018-07-26T04:18:26.548Z,941.04
2018-07-26T04:19:26.339Z,941.04
2018-07-26T04:20:26.363Z,941.04
2018-07-26T04:21:26.306Z,941.02
2018-07-26T04:22:26.298Z,941.01
2018-07-26T04:23:26.289Z,941.05
2018-07-26T04:24:26.274Z,941.06
2018-07-26T04:25:26.265Z,941.09
2018-07-26T04:26:26.255Z,941.05
2018-07-26T04:27:26.244Z,941.07
2018-07-26T04:28:26.234Z,941.04
2018-07-26T04:29:26.226Z,941.02
2018-07-26T04:30:26.212Z,941.01
2018-07-26T04:31:26.210Z,941.06
2018-07-26T04:32:26.193Z,941.04
2018-07-26T04:33:26.184Z,941.02
2018-07-26T04:34:26.170Z,940.98
2018-07-26T04:35:26.164Z,941.01
2018-07-26T04:36:26.153Z,940.97
2018-07-26T04:37:26.138Z,940.94
2018-07-26T04:38:26.130Z,940.97
2018-07-26T04:39:26.122Z,940.97
2018-07-26T04:40:26.107Z,940.96
2018-07-26T04:41:26.096Z,940.94
2018-07-26T04:42:26.086Z,940.89
2018-07-26T04:43:26.076Z,940.93
2018-07-26T04:44:26.070Z,940.94
2018-07-26T04:45:26.064Z,940.93
2018-07-26T04:46:26.044Z,940.89
2018-07-26T04:47:26.034Z,940.89
2018-07-26T04:48:26.022Z,940.86
2018-07-26T04:49:26.012Z,940.88
2018-07-26T04:50:26.001Z,940.84
2018-07-26T04:51:25.986Z,940.83
2018-07-26T04:52:25.976Z,940.83
2018-07-26T04:53:25.967Z,940.83
2018-07-26T04:54:25.961Z,940.84
2018-07-26T04:55:25.945Z,940.86
2018-07-26T04:56:25.933Z,940.88
2018-07-26T04:57:25.922Z,940.88
2018-07-26T04:58:25.912Z,940.91
2018-07-26T04:59:25.902Z,940.87
2018-07-26T05:00:25.890Z,940.85
2018-07-26T05:01:25.881Z,940.82
2018-07-26T05:02:25.870Z,940.85
2018-07-26T05:03:25.859Z,940.84
2018-07-26T05:04:25.848Z,940.85
2018-07-26T05:05:25.838Z,940.84
2018-07-26T05:06:25.829Z,940.85
2018-07-26T05:07:25.816Z,940.83
2018-07-26T05:08:25.806Z,940.84
2018-07-26T05:09:25.799Z,940.81
2018-07-26T05:10:25.785Z,940.81
2018-07-26T05:11:25.776Z,940.77
2018-07-26T05:12:25.963Z,940.78
2018-07-26T05:13:25.756Z,940.79
2018-07-26T05:14:25.743Z,940.79
2018-07-26T05:15:25.733Z,940.80
2018-07-26T05:16:25.721Z,940.77
2018-07-26T05:17:25.716Z,940.77
2018-07-26T05:18:25.759Z,940.78
2018-07-26T05:19:25.691Z,940.76
2018-07-26T05:20:25.680Z,940.78
2018-07-26T05:21:25.668Z,940.81
2018-07-26T05:22:25.659Z,940.77
2018-07-26T05:23:25.655Z,940.78
2018-07-26T05:24:25.638Z,940.78
2018-07-26T05:25:25.628Z,940.79
2018-07-26T05:26:25.618Z,940.77
2018-07-26T05:27:25.608Z,940.83
2018-07-26T05:28:25.595Z,940.78
2018-07-26T05:29:25.586Z,940.84
2018-07-26T05:30:25.577Z,940.83
2018-07-26T05:31:25.565Z,940.84
2018-07-26T05:32:25.556Z,940.80
2018-07-26T05:33:25.546Z,940.80
2018-07-26T05:34:25.535Z,940.76
2018-07-26T05:35:25.524Z,940.72
2018-07-26T05:36:25.511Z,940.75
2018-07-26T05:37:25.505Z,940.70
2018-07-26T05:38:25.491Z,940.73
2018-07-26T05:39:25.482Z,940.73
2018-07-26T05:40:25.471Z,940.67
2018-07-26T05:41:25.461Z,940.68
2018-07-26T05:42:25.650Z,940.66
2018-07-26T05:43:25.439Z,940.68
2018-07-26T05:44:25.428Z,940.69
2018-07-26T05:45:25.420Z,940.65
2018-07-26T05:46:25.409Z,940.64
2018-07-26T05:47:25.399Z,940.61
2018-07-26T05:48:25.391Z,940.61
2018-07-26T05:49:25.378Z,940.63
2018-07-26T05:50:25.366Z,940.62
2018-07-26T05:51:25.361Z,940.64
2018-07-26T05:52:25.346Z,940.67
2018-07-26T05:53:25.343Z,940.66
2018-07-26T05:54:25.526Z,940.62
2018-07-26T05:55:25.317Z,940.66
2018-07-26T05:56:25.305Z,940.66
2018-07-26T05:57:25.296Z,940.72
2018-07-26T05:58:25.285Z,940.64
2018-07-26T05:59:25.275Z,940.65
2018-07-26T06:00:25.264Z,940.64
2018-07-26T06:01:25.256Z,940.59
2018-07-26T06:02:25.242Z,940.60
2018-07-26T06:03:25.232Z,940.60
2018-07-26T06:04:25.221Z,940.59
2018-07-26T06:05:25.214Z,940.58
2018-07-26T06:06:25.200Z,940.57
2018-07-26T06:07:25.202Z,940.54
2018-07-26T06:08:25.184Z,940.56
2018-07-26T06:09:25.169Z,940.56
2018-07-26T06:10:25.159Z,940.57
2018-07-26T06:11:25.153Z,940.61
2018-07-26T06:12:25.342Z,940.60
2018-07-26T06:13:25.131Z,940.60
2018-07-26T06:14:25.122Z,940.58
2018-07-26T06:15:25.111Z,940.60
2018-07-26T06:16:25.104Z,940.62
2018-07-26T06:17:25.090Z,940.62
2018-07-26T06:18:25.080Z,940.62
2018-07-26T06:19:25.075Z,940.58
2018-07-26T06:20:25.059Z,940.60
2018-07-26T06:21:25.047Z,940.58
2018-07-26T06:22:25.037Z,940.61
2018-07-26T06:23:25.026Z,940.61
2018-07-26T06:24:25.215Z,940.62
2018-07-26T06:25:25.005Z,940.59
2018-07-26T06:26:24.994Z,940.56
2018-07-26T06:27:24.985Z,940.49
2018-07-26T06:28:24.975Z,940.49
2018-07-26T06:29:24.963Z,940.45
2018-07-26T06:30:25.153Z,940.46
2018-07-26T06:31:24.944Z,940.47
2018-07-26T06:32:24.970Z,940.47
2018-07-26T06:33:24.943Z,940.43
2018-07-26T06:34:24.929Z,940.43
2018-07-26T06:35:24.900Z,940.42
2018-07-26T06:36:24.888Z,940.42
2018-07-26T06:37:24.878Z,940.39
2018-07-26T06:38:24.860Z,940.38
2018-07-26T06:39:24.893Z,940.41
2018-07-26T06:40:24.836Z,940.41
2018-07-26T06:41:24.826Z,940.39
2018-07-26T06:42:24.815Z,940.38
2018-07-26T06:43:24.804Z,940.37
2018-07-26T06:44:24.797Z,940.43
2018-07-26T06:45:24.782Z,940.40
2018-07-26T06:46:24.772Z,940.40
2018-07-26T06:47:24.762Z,940.47
2018-07-26T06:48:24.951Z,940.42
2018-07-26T06:49:24.740Z,940.46
2018-07-26T06:50:24.732Z,940.44
2018-07-26T06:51:24.719Z,940.43
2018-07-26T06:52:24.709Z,940.43
2018-07-26T06:53:24.697Z,940.45
2018-07-26T06:54:24.688Z,940.48
2018-07-26T06:55:24.681Z,940.44
2018-07-26T06:56:24.666Z,940.44
2018-07-26T06:57:24.655Z,940.44
2018-07-26T06:58:24.657Z,940.43
2018-07-26T06:59:24.634Z,940.45
2018-07-26T07:00:24.623Z,940.41
2018-07-26T07:01:24.614Z,940.46
2018-07-26T07:02:24.603Z,940.47
2018-07-26T07:03:24.593Z,940.49
2018-07-26T07:04:24.581Z,940.49
2018-07-26T07:05:24.571Z,940.50
2018-07-26T07:06:24.761Z,940.48
2018-07-26T07:07:24.551Z,940.49
2018-07-26T07:08:24.546Z,940.47
2018-07-26T07:09:24.534Z,940.44
2018-07-26T07:10:24.519Z,940.46
2018-07-26T07:11:24.509Z,940.41
2018-07-26T07:12:24.498Z,940.41
2018-07-26T07:13:24.488Z,940.38
2018-07-26T07:14:24.478Z,940.37
2018-07-26T07:15:24.467Z,940.34
2018-07-26T07:16:24.456Z,940.37
2018-07-26T07:17:24.448Z,940.34
2018-07-26T07:18:24.436Z,940.34
2018-07-26T07:19:24.426Z,940.32
2018-07-26T07:20:24.419Z,940.32
2018-07-26T07:21:24.404Z,940.35
2018-07-26T07:22:24.394Z,940.34
2018-07-26T07:23:24.386Z,940.29
2018-07-26T07:24:24.573Z,940.33
2018-07-26T07:25:24.362Z,940.31
2018-07-26T07:26:24.354Z,940.29
2018-07-26T07:27:24.341Z,940.26
2018-07-26T07:28:24.330Z,940.22
2018-07-26T07:29:24.319Z,940.23
2018-07-26T07:30:24.509Z,940.24
2018-07-26T07:31:24.299Z,940.28
2018-07-26T07:32:24.287Z,940.25
2018-07-26T07:33:24.278Z,940.27
2018-07-26T07:34:24.267Z,940.33
2018-07-26T07:35:24.268Z,940.32
2018-07-26T07:36:24.445Z,940.34
2018-07-26T07:37:24.234Z,940.33
2018-07-26T07:38:24.224Z,940.30
2018-07-26T07:39:24.213Z,940.36
2018-07-26T07:40:24.201Z,940.29
2018-07-26T07:41:24.193Z,940.31
2018-07-26T07:42:24.189Z,940.30
2018-07-26T07:43:24.170Z,940.28
2018-07-26T07:44:24.159Z,940.28
2018-07-26T07:45:24.149Z,940.26
2018-07-26T07:46:24.139Z,940.28
2018-07-26T07:47:24.224Z,940.26
2018-07-26T07:48:24.316Z,940.26
2018-07-26T07:49:24.108Z,940.25
2018-07-26T07:50:24.096Z,940.25
2018-07-26T07:51:24.084Z,940.28
2018-07-26T07:52:24.073Z,940.22
2018-07-26T07:53:24.062Z,940.23
2018-07-26T07:54:24.053Z,940.25
2018-07-26T07:55:24.041Z,940.22
2018-07-26T07:56:24.030Z,940.23
2018-07-26T07:57:24.019Z,940.23
2018-07-26T07:58:24.009Z,940.26
2018-07-26T07:59:24.054Z,940.25
2018-07-26T08:00:23.986Z,940.27
2018-07-26T08:01:23.976Z,940.24
2018-07-26T08:02:23.965Z,940.27
2018-07-26T08:03:23.955Z,940.24
2018-07-26T08:04:23.944Z,940.24
2018-07-26T08:05:23.966Z,940.23
2018-07-26T08:06:23.923Z,940.23
2018-07-26T08:07:23.913Z,940.24
2018-07-26T08:08:23.902Z,940.25
2018-07-26T08:09:23.891Z,940.17
2018-07-26T08:10:23.880Z,940.19
2018-07-26T08:11:23.870Z,940.24
2018-07-26T08:12:23.859Z,940.21
2018-07-26T08:13:23.849Z,940.13
2018-07-26T08:14:23.838Z,940.18
2018-07-26T08:15:23.827Z,940.16
2018-07-26T08:16:23.816Z,940.21
2018-07-26T08:17:23.807Z,940.19
2018-07-26T08:18:23.795Z,940.23
2018-07-26T08:19:23.784Z,940.25
2018-07-26T08:20:23.773Z,940.24
2018-07-26T08:21:23.804Z,940.24
2018-07-26T08:22:23.753Z,940.27
2018-07-26T08:23:23.743Z,940.26
2018-07-26T08:24:23.931Z,940.26
2018-07-26T08:25:23.721Z,940.23
2018-07-26T08:26:23.710Z,940.26
2018-07-26T08:27:23.701Z,940.24
2018-07-26T08:28:23.688Z,940.24
2018-07-26T08:29:23.724Z,940.26
2018-07-26T08:30:23.667Z,940.21
2018-07-26T08:31:23.657Z,940.22
2018-07-26T08:32:23.646Z,940.25
2018-07-26T08:33:23.635Z,940.26
2018-07-26T08:34:23.625Z,940.23
2018-07-26T08:35:23.618Z,940.23
2018-07-26T08:36:23.603Z,940.23
2018-07-26T08:37:23.594Z,940.24
2018-07-26T08:38:23.581Z,940.24
2018-07-26T08:39:23.571Z,940.23
2018-07-26T08:40:23.560Z,940.25
2018-07-26T08:41:23.549Z,940.27
2018-07-26T08:42:23.538Z,940.29
2018-07-26T08:43:23.528Z,940.24
2018-07-26T08:44:23.518Z,940.24
2018-07-26T08:45:23.506Z,940.25
2018-07-26T08:46:23.496Z,940.24
2018-07-26T08:47:23.487Z,940.26
2018-07-26T08:48:23.473Z,940.27
2018-07-26T08:49:23.467Z,940.30
2018-07-26T08:50:23.453Z,940.27
2018-07-26T08:51:23.441Z,940.27
2018-07-26T08:52:23.431Z,940.28
2018-07-26T08:53:23.420Z,940.28
2018-07-26T08:54:23.610Z,940.29
2018-07-26T08:55:23.398Z,940.25
2018-07-26T08:56:23.389Z,940.21
2018-07-26T08:57:23.376Z,940.24
2018-07-26T08:58:23.365Z,940.21
2018-07-26T08:59:23.357Z,940.20
2018-07-26T09:00:23.542Z,940.23
2018-07-26T09:01:23.331Z,940.23
2018-07-26T09:02:23.321Z,940.24
2018-07-26T09:03:23.310Z,940.23
2018-07-26T09:04:23.299Z,940.22
2018-07-26T09:05:23.288Z,940.18
2018-07-26T09:06:23.277Z,940.19
2018-07-26T09:07:23.266Z,940.11
2018-07-26T09:08:23.256Z,940.12
2018-07-26T09:09:23.244Z,940.06
2018-07-26T09:10:23.233Z,940.03
2018-07-26T09:11:23.224Z,940.05
2018-07-26T09:12:23.210Z,940.06
2018-07-26T09:13:23.226Z,939.98
2018-07-26T09:14:23.188Z,940.01
2018-07-26T09:15:23.178Z,940.02
2018-07-26T09:16:23.166Z,940.11
2018-07-26T09:17:23.176Z,940.13
2018-07-26T09:18:23.350Z,940.18
2018-07-26T09:19:23.133Z,940.16
2018-07-26T09:20:23.122Z,940.19
2018-07-26T09:21:23.111Z,940.17
2018-07-26T09:22:23.100Z,940.18
2018-07-26T09:23:23.090Z,940.19
2018-07-26T09:24:23.083Z,940.22
2018-07-26T09:25:23.067Z,940.19
2018-07-26T09:26:23.120Z,940.18
2018-07-26T09:27:23.050Z,940.15
2018-07-26T09:28:23.033Z,940.12
2018-07-26T09:29:23.022Z,940.10
2018-07-26T09:30:23.011Z,940.11
2018-07-26T09:31:23.000Z,940.06
2018-07-26T09:32:22.991Z,940.05
2018-07-26T09:33:23.003Z,940.02
2018-07-26T09:34:22.967Z,940.05
2018-07-26T09:35:23.013Z,940.09
2018-07-26T09:36:22.944Z,940.10
2018-07-26T09:37:22.932Z,940.10
2018-07-26T09:38:22.924Z,940.07
2018-07-26T09:39:22.912Z,940.08
2018-07-26T09:40:22.902Z,940.08
2018-07-26T09:41:22.888Z,940.07
2018-07-26T09:42:22.877Z,940.14
2018-07-26T09:43:22.866Z,940.21
2018-07-26T09:44:22.854Z,940.20
2018-07-26T09:45:22.843Z,940.21
2018-07-26T09:46:22.833Z,940.26
2018-07-26T09:47:22.831Z,940.31
2018-07-26T09:48:22.809Z,940.31
2018-07-26T09:49:22.799Z,940.32
2018-07-26T09:50:22.787Z,940.37
2018-07-26T09:51:22.777Z,940.37
2018-07-26T09:52:22.765Z,940.40
2018-07-26T09:53:22.755Z,940.39
2018-07-26T09:54:22.744Z,940.42
2018-07-26T09:55:22.733Z,940.40
2018-07-26T09:56:22.721Z,940.46
2018-07-26T09:57:22.710Z,940.45
2018-07-26T09:58:22.701Z,940.48
2018-07-26T09:59:22.689Z,940.46
2018-07-26T10:00:22.925Z,940.49
2018-07-26T10:01:22.666Z,940.52
2018-07-26T10:02:22.656Z,940.57
2018-07-26T10:03:22.644Z,940.56
2018-07-26T10:04:22.633Z,940.60
2018-07-26T10:05:22.622Z,940.62
2018-07-26T10:06:22.611Z,940.64
2018-07-26T10:07:22.606Z,940.65
2018-07-26T10:08:22.590Z,940.68
2018-07-26T10:09:22.578Z,940.69
2018-07-26T10:10:22.567Z,940.72
2018-07-26T10:11:22.557Z,940.75
2018-07-26T10:12:22.745Z,940.75
2018-07-26T10:13:22.534Z,940.78
2018-07-26T10:14:22.523Z,940.82
2018-07-26T10:15:22.512Z,940.85
2018-07-26T10:16:22.502Z,940.84
2018-07-26T10:17:22.490Z,940.86
2018-07-26T10:18:22.679Z,940.87
2018-07-26T10:19:22.469Z,940.92
2018-07-26T10:20:22.456Z,940.93
2018-07-26T10:21:22.445Z,940.96
2018-07-26T10:22:22.433Z,940.97
2018-07-26T10:23:22.422Z,940.98
2018-07-26T10:24:22.412Z,940.95
2018-07-26T10:25:22.400Z,941.01
2018-07-26T10:26:22.389Z,941.00
2018-07-26T10:27:22.377Z,941.04
2018-07-26T10:28:22.369Z,941.02
2018-07-26T10:29:22.355Z,941.08
2018-07-26T10:30:22.344Z,941.08
2018-07-26T10:31:22.333Z,941.08
2018-07-26T10:32:22.321Z,941.10
2018-07-26T10:33:22.310Z,941.08
2018-07-26T10:34:22.300Z,941.06
2018-07-26T10:35:22.289Z,941.00
2018-07-26T10:36:22.277Z,941.08
2018-07-26T10:37:22.267Z,941.08
2018-07-26T10:38:22.255Z,941.07
2018-07-26T10:39:22.245Z,941.09
2018-07-26T10:40:22.234Z,941.06
2018-07-26T10:41:22.224Z,941.04
2018-07-26T10:42:22.213Z,941.03
2018-07-26T10:43:22.200Z,941.03
2018-07-26T10:44:22.190Z,941.04
2018-07-26T10:45:22.180Z,941.02
2018-07-26T10:46:22.173Z,941.00
2018-07-26T10:47:22.158Z,941.03
2018-07-26T10:48:22.145Z,941.05
2018-07-26T10:49:22.137Z,941.02
2018-07-26T10:50:22.125Z,941.02
2018-07-26T10:51:22.112Z,941.02
2018-07-26T10:52:22.100Z,941.01
2018-07-26T10:53:22.090Z,941.03
2018-07-26T10:54:22.079Z,941.04
2018-07-26T10:55:22.068Z,941.07
2018-07-26T10:56:22.057Z,941.04
2018-07-26T10:57:22.046Z,941.07
2018-07-26T10:58:22.035Z,941.09
2018-07-26T10:59:22.025Z,941.11
2018-07-26T11:00:22.069Z,941.12
2018-07-26T11:01:22.005Z,941.14
2018-07-26T11:02:21.991Z,941.11
2018-07-26T11:03:21.980Z,941.13
2018-07-26T11:04:21.969Z,941.12
2018-07-26T11:05:21.958Z,941.16
2018-07-26T11:06:21.947Z,941.14
2018-07-26T11:07:21.937Z,941.12
2018-07-26T11:08:21.925Z,941.13
2018-07-26T11:09:21.918Z,941.15
2018-07-26T11:10:21.912Z,941.19
2018-07-26T11:11:21.893Z,941.15
2018-07-26T11:12:21.881Z,941.15
2018-07-26T11:13:21.870Z,941.13
2018-07-26T11:14:21.863Z,941.12
2018-07-26T11:15:21.853Z,941.10
2018-07-26T11:16:21.837Z,941.11
2018-07-26T11:17:21.977Z,941.11
2018-07-26T11:18:21.818Z,941.12
2018-07-26T11:19:21.806Z,941.12
2018-07-26T11:20:21.795Z,941.19
2018-07-26T11:21:21.828Z,941.24
2018-07-26T11:22:21.772Z,941.23
2018-07-26T11:23:21.761Z,941.22
2018-07-26T11:24:21.793Z,941.22
2018-07-26T11:25:21.740Z,941.23
2018-07-26T11:26:21.728Z,941.24
2018-07-26T11:27:21.717Z,941.21
2018-07-26T11:28:21.707Z,941.24
2018-07-26T11:29:21.894Z,941.26
2018-07-26T11:30:21.684Z,941.23
2018-07-26T11:31:21.673Z,941.30
2018-07-26T11:32:21.716Z,941.26
2018-07-26T11:33:21.650Z,941.27
2018-07-26T11:34:21.639Z,941.30
2018-07-26T11:35:21.630Z,941.20
2018-07-26T11:36:21.617Z,941.27
2018-07-26T11:37:21.607Z,941.29
2018-07-26T11:38:21.595Z,941.31
2018-07-26T11:39:21.586Z,941.28
2018-07-26T11:40:21.574Z,941.30
2018-07-26T11:41:21.634Z,941.26
2018-07-26T11:42:21.562Z,941.30
2018-07-26T11:43:21.544Z,941.26
2018-07-26T11:44:21.532Z,941.29
2018-07-26T11:45:21.524Z,941.23
2018-07-26T11:46:21.511Z,941.21
2018-07-26T11:47:21.502Z,941.23
2018-07-26T11:48:21.489Z,941.19
2018-07-26T11:49:21.479Z,941.19
2018-07-26T11:50:21.497Z,941.21
2018-07-26T11:51:21.467Z,941.20
2018-07-26T11:52:21.461Z,941.23
2018-07-26T11:53:21.460Z,941.23
2018-07-26T11:54:21.460Z,941.20
2018-07-26T11:55:21.436Z,941.25
2018-07-26T11:56:21.411Z,941.23
2018-07-26T11:57:21.401Z,941.24
2018-07-26T11:58:21.398Z,941.26
2018-07-26T11:59:21.544Z,941.28
2018-07-26T12:00:21.379Z,941.29
2018-07-26T12:01:21.382Z,941.34
2018-07-26T12:02:21.383Z,941.36
2018-07-26T12:03:21.346Z,941.39
2018-07-26T12:04:21.336Z,941.45
2018-07-26T12:05:21.327Z,941.47
2018-07-26T12:06:21.318Z,941.49
2018-07-26T12:07:21.310Z,941.55
2018-07-26T12:08:21.300Z,941.57
2018-07-26T12:09:21.291Z,941.58
2018-07-26T12:10:21.487Z,941.59
2018-07-26T12:11:21.274Z,941.57
2018-07-26T12:12:21.265Z,941.57
2018-07-26T12:13:21.256Z,941.57
2018-07-26T12:14:21.310Z,941.58
2018-07-26T12:15:21.241Z,941.62
2018-07-26T12:16:21.231Z,941.63
2018-07-26T12:17:21.225Z,941.63
2018-07-26T12:18:21.226Z,941.59
2018-07-26T12:19:21.209Z,941.69
2018-07-26T12:20:21.200Z,941.71
2018-07-26T12:21:21.191Z,941.71
2018-07-26T12:22:21.200Z,941.71
2018-07-26T12:23:21.186Z,941.74
2018-07-26T12:24:21.178Z,941.73
2018-07-26T12:25:21.169Z,941.73
2018-07-26T12:26:21.160Z,941.70
2018-07-26T12:27:21.154Z,941.72
2018-07-26T12:28:21.156Z,941.74
2018-07-26T12:29:21.153Z,941.79